Terminal Aerodrome Forecast
Issued by NWS

Home | Current Version | Previous Version | Text Only | Print | Product List | Glossary On
Versions: 1 2 3 4 5 6 7 8 9 10 11 12 13
000
FTUS45 KVEF 040524
TAFEED
TAF
KEED 040524Z 0406/0506 27006KT P6SM FEW250
     FM041700 15010KT P6SM FEW250
     FM042100 18014G24KT P6SM SCT250
     FM050300 22014G22KT P6SM FEW250=

USA.gov is the U.S. government's official web portal to all federal, state and local government web resources and services.